sensor_id;sensor_type;location;lat;lon;timestamp;pressure;altitude;pressure_sealevel;temperature;humidity
61136;BME280;47021;51.340;12.432;2023-01-04T00:03:27;101229.28;;;9.63;62.94
61136;BME280;47021;51.340;12.432;2023-01-04T00:05:55;101221.56;;;9.48;63.49
61136;BME280;47021;51.340;12.432;2023-01-04T00:08:22;101214.03;;;9.43;63.59
61136;BME280;47021;51.340;12.432;2023-01-04T00:10:47;101207.84;;;9.58;63.15
61136;BME280;47021;51.340;12.432;2023-01-04T00:13:13;101204.44;;;9.58;63.23
61136;BME280;47021;51.340;12.432;2023-01-04T00:15:38;101198.38;;;9.57;63.31
61136;BME280;47021;51.340;12.432;2023-01-04T00:18:03;101187.66;;;9.48;63.79
61136;BME280;47021;51.340;12.432;2023-01-04T00:20:37;101191.47;;;9.42;63.56
61136;BME280;47021;51.340;12.432;2023-01-04T00:23:03;101191.09;;;9.06;65.03
61136;BME280;47021;51.340;12.432;2023-01-04T00:25:28;101191.88;;;9.36;64.28
61136;BME280;47021;51.340;12.432;2023-01-04T00:27:53;101190.28;;;9.48;63.62
61136;BME280;47021;51.340;12.432;2023-01-04T00:30:21;101176.59;;;9.02;64.96
61136;BME280;47021;51.340;12.432;2023-01-04T00:32:48;101176.88;;;9.11;64.94
61136;BME280;47021;51.340;12.432;2023-01-04T00:38:01;101181.34;;;9.09;64.74
61136;BME280;47021;51.340;12.432;2023-01-04T00:40:37;101175.13;;;9.12;65.32
61136;BME280;47021;51.340;12.432;2023-01-04T00:43:06;101167.38;;;9.24;64.65
61136;BME280;47021;51.340;12.432;2023-01-04T00:45:33;101162.44;;;9.20;64.69
61136;BME280;47021;51.340;12.432;2023-01-04T00:48:08;101149.81;;;9.14;64.70
61136;BME280;47021;51.340;12.432;2023-01-04T00:53:26;101138.88;;;8.79;65.99
61136;BME280;47021;51.340;12.432;2023-01-04T00:56:00;101133.03;;;8.90;65.64
61136;BME280;47021;51.340;12.432;2023-01-04T00:58:30;101126.25;;;8.87;65.91
61136;BME280;47021;51.340;12.432;2023-01-04T01:03:38;101125.03;;;8.19;68.14
61136;BME280;47021;51.340;12.432;2023-01-04T01:06:06;101121.38;;;8.67;66.48
61136;BME280;47021;51.340;12.432;2023-01-04T01:08:32;101122.03;;;8.85;65.72
61136;BME280;47021;51.340;12.432;2023-01-04T01:11:02;101123.19;;;8.95;65.54
61136;BME280;47021;51.340;12.432;2023-01-04T01:13:29;101117.22;;;8.93;65.26
61136;BME280;47021;51.340;12.432;2023-01-04T01:16:08;101116.84;;;8.85;65.44
61136;BME280;47021;51.340;12.432;2023-01-04T01:18:41;101115.34;;;8.81;65.32
61136;BME280;47021;51.340;12.432;2023-01-04T01:21:18;101116.44;;;8.63;66.05
61136;BME280;47021;51.340;12.432;2023-01-04T01:23:49;101115.16;;;8.70;66.23
61136;BME280;47021;51.340;12.432;2023-01-04T01:26:19;101118.00;;;8.51;66.55
61136;BME280;47021;51.340;12.432;2023-01-04T01:28:46;101116.84;;;8.85;65.44
61136;BME280;47021;51.340;12.432;2023-01-04T01:31:20;101098.25;;;8.91;65.28
61136;BME280;47021;51.340;12.432;2023-01-04T01:33:53;101101.38;;;8.53;66.51
61136;BME280;47021;51.340;12.432;2023-01-04T01:36:31;101092.94;;;8.50;67.09
61136;BME280;47021;51.340;12.432;2023-01-04T01:38:56;101092.09;;;8.64;66.39
61136;BME280;47021;51.340;12.432;2023-01-04T01:41:32;101091.19;;;8.79;66.28
61136;BME280;47021;51.340;12.432;2023-01-04T01:45:00;101091.19;;;8.93;65.18
61136;BME280;47021;51.340;12.432;2023-01-04T01:46:56;101081.97;;;8.59;66.63
61136;BME280;47021;51.340;12.432;2023-01-04T01:49:39;101066.59;;;8.69;66.23
61136;BME280;47021;51.340;12.432;2023-01-04T01:52:14;101061.03;;;8.61;66.94
61136;BME280;47021;51.340;12.432;2023-01-04T01:54:44;101062.91;;;8.59;66.81
61136;BME280;47021;51.340;12.432;2023-01-04T01:57:24;101056.41;;;8.80;66.50
61136;BME280;47021;51.340;12.432;2023-01-04T01:59:52;101054.16;;;8.74;66.32
61136;BME280;47021;51.340;12.432;2023-01-04T02:02:19;101049.22;;;8.83;66.08
61136;BME280;47021;51.340;12.432;2023-01-04T02:04:47;101055.19;;;8.71;66.60
61136;BME280;47021;51.340;12.432;2023-01-04T02:07:19;101051.00;;;8.83;66.26
61136;BME280;47021;51.340;12.432;2023-01-04T02:09:46;101052.41;;;9.02;65.97
61136;BME280;47021;51.340;12.432;2023-01-04T02:12:13;101040.56;;;8.83;66.52
61136;BME280;47021;51.340;12.432;2023-01-04T02:30:58;101025.66;;;9.13;65.30
61136;BME280;47021;51.340;12.432;2023-01-04T02:44:10;100996.81;;;9.16;65.27
61136;BME280;47021;51.340;12.432;2023-01-04T02:46:51;100992.09;;;9.35;64.70
61136;BME280;47021;51.340;12.432;2023-01-04T02:49:19;100984.06;;;9.26;64.87
61136;BME280;47021;51.340;12.432;2023-01-04T02:51:44;100971.31;;;9.21;64.97
61136;BME280;47021;51.340;12.432;2023-01-04T02:54:20;100974.22;;;9.16;65.52
61136;BME280;47021;51.340;12.432;2023-01-04T02:59:36;100959.66;;;9.00;65.63
61136;BME280;47021;51.340;12.432;2023-01-04T03:12:46;100952.63;;;9.14;64.85
61136;BME280;47021;51.340;12.432;2023-01-04T03:15:30;100953.72;;;9.24;64.32
61136;BME280;47021;51.340;12.432;2023-01-04T03:18:15;100953.53;;;9.28;64.26
61136;BME280;47021;51.340;12.432;2023-01-04T03:20:44;100944.50;;;9.19;64.64
61136;BME280;47021;51.340;12.432;2023-01-04T03:23:12;100935.50;;;8.84;65.68
61136;BME280;47021;51.340;12.432;2023-01-04T03:25:40;100931.31;;;8.81;66.32
61136;BME280;47021;51.340;12.432;2023-01-04T03:28:07;100927.38;;;9.02;65.32
61136;BME280;47021;51.340;12.432;2023-01-04T03:33:05;100921.06;;;8.92;65.75
61136;BME280;47021;51.340;12.432;2023-01-04T03:35:42;100921.03;;;8.66;65.51
61136;BME280;47021;51.340;12.432;2023-01-04T03:40:35;100904.31;;;8.56;66.76
61136;BME280;47021;51.340;12.432;2023-01-04T03:43:13;100905.13;;;8.70;66.36
61136;BME280;47021;51.340;12.432;2023-01-04T03:45:42;100902.06;;;8.78;66.16
61136;BME280;47021;51.340;12.432;2023-01-04T03:48:13;100891.84;;;8.87;66.17
61136;BME280;47021;51.340;12.432;2023-01-04T03:50:46;100894.88;;;9.08;65.30
61136;BME280;47021;51.340;12.432;2023-01-04T03:53:19;100885.19;;;9.10;64.84
61136;BME280;47021;51.340;12.432;2023-01-04T03:55:45;100880.03;;;8.96;65.30
61136;BME280;47021;51.340;12.432;2023-01-04T03:58:15;100870.84;;;8.90;65.96
61136;BME280;47021;51.340;12.432;2023-01-04T04:00:48;100866.34;;;9.19;64.75
61136;BME280;47021;51.340;12.432;2023-01-04T04:03:14;100855.38;;;8.75;66.20
61136;BME280;47021;51.340;12.432;2023-01-04T04:05:40;100848.69;;;9.10;65.45
61136;BME280;47021;51.340;12.432;2023-01-04T04:08:07;100837.47;;;9.09;64.72
61136;BME280;47021;51.340;12.432;2023-01-04T04:10:33;100827.66;;;9.00;65.68
61136;BME280;47021;51.340;12.432;2023-01-04T04:12:59;100818.50;;;9.07;65.71
61136;BME280;47021;51.340;12.432;2023-01-04T04:15:25;100824.38;;;8.84;66.43
61136;BME280;47021;51.340;12.432;2023-01-04T04:18:09;100820.66;;;9.01;65.53
61136;BME280;47021;51.340;12.432;2023-01-04T04:20:36;100823.31;;;9.13;65.43
61136;BME280;47021;51.340;12.432;2023-01-04T04:23:03;100811.94;;;9.14;64.83
61136;BME280;47021;51.340;12.432;2023-01-04T04:25:31;100801.66;;;8.86;66.22
61136;BME280;47021;51.340;12.432;2023-01-04T04:27:58;100805.25;;;9.10;65.41
61136;BME280;47021;51.340;12.432;2023-01-04T04:30:24;100793.69;;;9.02;65.78
61136;BME280;47021;51.340;12.432;2023-01-04T04:33:05;100803.97;;;8.91;66.27
61136;BME280;47021;51.340;12.432;2023-01-04T04:35:30;100793.25;;;8.95;65.42
61136;BME280;47021;51.340;12.432;2023-01-04T04:37:55;100789.56;;;9.24;65.28
61136;BME280;47021;51.340;12.432;2023-01-04T04:40:21;100783.50;;;9.24;65.14
61136;BME280;47021;51.340;12.432;2023-01-04T04:42:47;100782.31;;;8.90;66.12
61136;BME280;47021;51.340;12.432;2023-01-04T04:45:12;100775.72;;;8.85;66.14
61136;BME280;47021;51.340;12.432;2023-01-04T04:47:46;100779.00;;;9.26;64.95
61136;BME280;47021;51.340;12.432;2023-01-04T04:50:13;100765.03;;;9.14;65.45
61136;BME280;47021;51.340;12.432;2023-01-04T04:52:40;100771.13;;;9.28;65.29
61136;BME280;47021;51.340;12.432;2023-01-04T04:55:06;100771.50;;;9.09;65.99
61136;BME280;47021;51.340;12.432;2023-01-04T04:59:59;100757.03;;;9.43;65.00
61136;BME280;47021;51.340;12.432;2023-01-04T05:02:25;100747.31;;;9.70;63.87
61136;BME280;47021;51.340;12.432;2023-01-04T05:04:51;100743.69;;;9.60;64.14
61136;BME280;47021;51.340;12.432;2023-01-04T05:07:16;100739.00;;;9.40;64.74
61136;BME280;47021;51.340;12.432;2023-01-04T05:09:53;100729.94;;;9.58;64.70
61136;BME280;47021;51.340;12.432;2023-01-04T05:12:26;100716.38;;;9.40;64.97
61136;BME280;47021;51.340;12.432;2023-01-04T05:15:00;100713.66;;;9.54;64.65
61136;BME280;47021;51.340;12.432;2023-01-04T05:17:25;100713.78;;;9.53;65.11
61136;BME280;47021;51.340;12.432;2023-01-04T05:19:53;100709.56;;;9.63;64.69
61136;BME280;47021;51.340;12.432;2023-01-04T05:22:19;100704.03;;;9.67;64.50
61136;BME280;47021;51.340;12.432;2023-01-04T05:24:52;100703.63;;;9.61;64.93
61136;BME280;47021;51.340;12.432;2023-01-04T05:27:18;100701.03;;;9.97;63.82
61136;BME280;47021;51.340;12.432;2023-01-04T05:32:19;100690.78;;;9.70;64.57
61136;BME280;47021;51.340;12.432;2023-01-04T05:37:40;100688.19;;;9.70;64.57
61136;BME280;47021;51.340;12.432;2023-01-04T05:40:19;100679.34;;;9.97;63.82
61136;BME280;47021;51.340;12.432;2023-01-04T05:48:31;100661.81;;;9.99;63.80
61136;BME280;47021;51.340;12.432;2023-01-04T05:50:57;100661.56;;;10.14;63.69
61136;BME280;47021;51.340;12.432;2023-01-04T05:53:25;100662.47;;;9.89;64.45
61136;BME280;47021;51.340;12.432;2023-01-04T05:55:51;100655.09;;;10.07;63.91
61136;BME280;47021;51.340;12.432;2023-01-04T06:01:07;100652.47;;;10.54;62.57
61136;BME280;47021;51.340;12.432;2023-01-04T06:03:33;100662.88;;;10.43;62.89
61136;BME280;47021;51.340;12.432;2023-01-04T06:05:59;100659.41;;;10.43;63.03
61136;BME280;47021;51.340;12.432;2023-01-04T06:08:27;100655.22;;;10.64;62.40
61136;BME280;47021;51.340;12.432;2023-01-04T06:10:52;100650.88;;;10.76;61.74
61136;BME280;47021;51.340;12.432;2023-01-04T06:13:18;100653.94;;;10.70;62.01
61136;BME280;47021;51.340;12.432;2023-01-04T06:15:51;100646.84;;;10.83;61.64
61136;BME280;47021;51.340;12.432;2023-01-04T06:18:34;100652.06;;;10.72;61.82
61136;BME280;47021;51.340;12.432;2023-01-04T06:21:00;100636.22;;;10.62;62.28
61136;BME280;47021;51.340;12.432;2023-01-04T06:23:27;100633.91;;;10.81;61.75
61136;BME280;47021;51.340;12.432;2023-01-04T06:25:53;100625.59;;;10.76;61.76
61136;BME280;47021;51.340;12.432;2023-01-04T06:28:24;100632.84;;;10.95;61.67
61136;BME280;47021;51.340;12.432;2023-01-04T06:30:49;100623.22;;;10.84;61.65
61136;BME280;47021;51.340;12.432;2023-01-04T06:33:22;100621.78;;;10.80;61.57
61136;BME280;47021;51.340;12.432;2023-01-04T06:38:31;100614.44;;;10.74;62.11
61136;BME280;47021;51.340;12.432;2023-01-04T06:40:59;100614.16;;;10.66;62.92
61136;BME280;47021;51.340;12.432;2023-01-04T06:46:13;100594.88;;;11.02;62.40
61136;BME280;47021;51.340;12.432;2023-01-04T06:48:39;100598.94;;;10.49;64.17
61136;BME280;47021;51.340;12.432;2023-01-04T06:51:18;100592.69;;;10.62;64.20
61136;BME280;47021;51.340;12.432;2023-01-04T06:53:56;100581.75;;;10.57;64.26
61136;BME280;47021;51.340;12.432;2023-01-04T06:56:23;100576.50;;;10.46;64.55
61136;BME280;47021;51.340;12.432;2023-01-04T06:58:55;100579.81;;;10.48;64.91
61136;BME280;47021;51.340;12.432;2023-01-04T07:01:20;100558.59;;;10.64;64.92
61136;BME280;47021;51.340;12.432;2023-01-04T07:03:45;100568.34;;;10.84;63.98
61136;BME280;47021;51.340;12.432;2023-01-04T07:06:12;100566.78;;;10.59;64.60
61136;BME280;47021;51.340;12.432;2023-01-04T07:08:39;100557.41;;;10.46;65.59
61136;BME280;47021;51.340;12.432;2023-01-04T07:11:04;100553.72;;;10.48;65.58
61136;BME280;47021;51.340;12.432;2023-01-04T07:13:29;100551.34;;;10.45;66.52
61136;BME280;47021;51.340;12.432;2023-01-04T07:15:55;100546.94;;;10.35;66.48
61136;BME280;47021;51.340;12.432;2023-01-04T07:18:20;100541.84;;;10.44;66.69
61136;BME280;47021;51.340;12.432;2023-01-04T07:20:45;100530.09;;;10.50;65.79
61136;BME280;47021;51.340;12.432;2023-01-04T07:23:11;100531.41;;;10.55;66.03
61136;BME280;47021;51.340;12.432;2023-01-04T07:25:50;100534.16;;;10.65;65.60
61136;BME280;47021;51.340;12.432;2023-01-04T07:28:15;100534.88;;;11.11;64.49
61136;BME280;47021;51.340;12.432;2023-01-04T07:30:43;100538.91;;;10.93;64.53
61136;BME280;47021;51.340;12.432;2023-01-04T07:33:08;100533.53;;;11.28;63.82
61136;BME280;47021;51.340;12.432;2023-01-04T07:35:35;100533.31;;;11.20;63.57
61136;BME280;47021;51.340;12.432;2023-01-04T07:38:01;100539.25;;;11.11;64.24
61136;BME280;47021;51.340;12.432;2023-01-04T07:40:27;100544.94;;;11.38;63.62
61136;BME280;47021;51.340;12.432;2023-01-04T07:42:52;100545.78;;;11.16;64.20
61136;BME280;47021;51.340;12.432;2023-01-04T07:45:18;100536.31;;;11.04;64.22
61136;BME280;47021;51.340;12.432;2023-01-04T07:47:45;100539.47;;;11.30;64.26
61136;BME280;47021;51.340;12.432;2023-01-04T07:50:11;100533.88;;;11.34;63.57
61136;BME280;47021;51.340;12.432;2023-01-04T07:52:36;100536.53;;;11.55;62.76
61136;BME280;47021;51.340;12.432;2023-01-04T07:55:01;100533.63;;;11.38;63.20
61136;BME280;47021;51.340;12.432;2023-01-04T07:57:27;100537.22;;;11.37;63.59
61136;BME280;47021;51.340;12.432;2023-01-04T07:59:53;100527.91;;;11.55;63.36
61136;BME280;47021;51.340;12.432;2023-01-04T08:02:24;100543.41;;;11.24;64.01
61136;BME280;47021;51.340;12.432;2023-01-04T08:04:49;100525.22;;;11.34;63.66
61136;BME280;47021;51.340;12.432;2023-01-04T08:07:16;100520.09;;;11.32;63.38
61136;BME280;47021;51.340;12.432;2023-01-04T08:09:43;100511.66;;;11.29;63.86
61136;BME280;47021;51.340;12.432;2023-01-04T08:12:09;100511.81;;;11.27;64.05
61136;BME280;47021;51.340;12.432;2023-01-04T08:14:34;100512.19;;;11.01;64.53
61136;BME280;47021;51.340;12.432;2023-01-04T08:17:02;100502.53;;;11.12;64.27
61136;BME280;47021;51.340;12.432;2023-01-04T08:19:27;100498.53;;;10.97;64.42
61136;BME280;47021;51.340;12.432;2023-01-04T08:21:53;100489.28;;;10.60;65.17
61136;BME280;47021;51.340;12.432;2023-01-04T08:24:18;100482.53;;;10.91;64.66
61136;BME280;47021;51.340;12.432;2023-01-04T08:26:46;100470.38;;;11.01;64.37
61136;BME280;47021;51.340;12.432;2023-01-04T08:29:17;100448.06;;;11.40;64.51
61136;BME280;47021;51.340;12.432;2023-01-04T08:31:42;100442.56;;;11.11;63.51
61136;BME280;47021;51.340;12.432;2023-01-04T08:34:08;100459.53;;;11.27;62.90
61136;BME280;47021;51.340;12.432;2023-01-04T08:36:34;100435.34;;;11.03;63.71
61136;BME280;47021;51.340;12.432;2023-01-04T08:39:01;100432.03;;;11.01;63.68
61136;BME280;47021;51.340;12.432;2023-01-04T08:41:28;100423.91;;;11.15;63.36
61136;BME280;47021;51.340;12.432;2023-01-04T08:43:53;100417.28;;;11.43;62.70
61136;BME280;47021;51.340;12.432;2023-01-04T08:46:18;100419.81;;;11.33;62.58
61136;BME280;47021;51.340;12.432;2023-01-04T08:48:44;100467.91;;;11.42;62.21
61136;BME280;47021;51.340;12.432;2023-01-04T08:51:16;100478.13;;;11.45;61.84
61136;BME280;47021;51.340;12.432;2023-01-04T08:53:43;100470.91;;;11.26;62.14
61136;BME280;47021;51.340;12.432;2023-01-04T08:56:08;100456.81;;;11.18;62.30
61136;BME280;47021;51.340;12.432;2023-01-04T08:58:35;100451.22;;;11.22;62.62
61136;BME280;47021;51.340;12.432;2023-01-04T09:01:01;100454.22;;;11.07;62.50
61136;BME280;47021;51.340;12.432;2023-01-04T09:03:27;100439.09;;;11.21;62.82
61136;BME280;47021;51.340;12.432;2023-01-04T09:06:04;100439.41;;;10.85;63.50
61136;BME280;47021;51.340;12.432;2023-01-04T09:08:30;100435.34;;;11.03;63.33
61136;BME280;47021;51.340;12.432;2023-01-04T09:10:56;100455.75;;;11.09;63.22
61136;BME280;47021;51.340;12.432;2023-01-04T09:13:23;100443.41;;;11.11;62.71
61136;BME280;47021;51.340;12.432;2023-01-04T09:15:48;100421.72;;;11.31;62.48
61136;BME280;47021;51.340;12.432;2023-01-04T09:18:14;100409.38;;;11.54;61.56
61136;BME280;47021;51.340;12.432;2023-01-04T09:20:40;100410.84;;;11.47;62.07
61136;BME280;47021;51.340;12.432;2023-01-04T09:25:44;100410.34;;;11.74;60.94
61136;BME280;47021;51.340;12.432;2023-01-04T09:28:09;100402.91;;;11.69;60.77
61136;BME280;47021;51.340;12.432;2023-01-04T09:30:53;100395.09;;;11.58;60.80
61136;BME280;47021;51.340;12.432;2023-01-04T09:33:20;100397.75;;;11.47;61.37
61136;BME280;47021;51.340;12.432;2023-01-04T09:38:37;100403.94;;;11.78;60.36
61136;BME280;47021;51.340;12.432;2023-01-04T09:46:36;100396.97;;;11.88;59.90
61136;BME280;47021;51.340;12.432;2023-01-04T09:52:03;100408.19;;;11.79;60.43
61136;BME280;47021;51.340;12.432;2023-01-04T09:54:32;100396.91;;;11.78;60.16
61136;BME280;47021;51.340;12.432;2023-01-04T10:05:25;100393.47;;;11.78;60.57
61136;BME280;47021;51.340;12.432;2023-01-04T10:07:55;100388.88;;;11.70;60.43
61136;BME280;47021;51.340;12.432;2023-01-04T10:10:38;100378.47;;;11.80;59.70
61136;BME280;47021;51.340;12.432;2023-01-04T10:26:57;100356.94;;;11.97;59.55
61136;BME280;47021;51.340;12.432;2023-01-04T10:29:45;100357.19;;;12.24;58.87
61136;BME280;47021;51.340;12.432;2023-01-04T10:34:59;100337.69;;;11.77;59.49
61136;BME280;47021;51.340;12.432;2023-01-04T10:37:39;100339.59;;;11.96;59.57
61136;BME280;47021;51.340;12.432;2023-01-04T10:40:20;100332.69;;;12.25;58.38
61136;BME280;47021;51.340;12.432;2023-01-04T10:42:51;100320.34;;;12.07;58.91
61136;BME280;47021;51.340;12.432;2023-01-04T10:55:49;100292.56;;;11.85;59.00
61136;BME280;47021;51.340;12.432;2023-01-04T11:06:22;100278.63;;;11.75;59.38
61136;BME280;47021;51.340;12.432;2023-01-04T11:14:17;100267.63;;;11.60;61.37
61136;BME280;47021;51.340;12.432;2023-01-04T11:16:49;100271.38;;;11.88;59.91
61136;BME280;47021;51.340;12.432;2023-01-04T11:19:16;100246.44;;;11.84;60.13
61136;BME280;47021;51.340;12.432;2023-01-04T11:22:05;100254.69;;;11.79;60.54
61136;BME280;47021;51.340;12.432;2023-01-04T11:24:40;100233.72;;;12.10;59.34
61136;BME280;47021;51.340;12.432;2023-01-04T11:27:16;100209.78;;;11.74;60.32
61136;BME280;47021;51.340;12.432;2023-01-04T11:32:40;100202.72;;;12.15;59.72
61136;BME280;47021;51.340;12.432;2023-01-04T11:37:38;100192.88;;;11.88;60.64
61136;BME280;47021;51.340;12.432;2023-01-04T11:42:44;100199.81;;;12.18;61.39
61136;BME280;47021;51.340;12.432;2023-01-04T11:45:16;100199.91;;;11.97;62.19
61136;BME280;47021;51.340;12.432;2023-01-04T11:47:48;100196.22;;;12.09;61.59
61136;BME280;47021;51.340;12.432;2023-01-04T11:52:58;100191.03;;;11.69;62.98
61136;BME280;47021;51.340;12.432;2023-01-04T11:55:27;100182.53;;;11.77;62.96
61136;BME280;47021;51.340;12.432;2023-01-04T12:00:49;100178.03;;;11.58;63.96
61136;BME280;47021;51.340;12.432;2023-01-04T12:03:16;100171.09;;;11.78;63.64
61136;BME280;47021;51.340;12.432;2023-01-04T12:05:42;100181.81;;;11.45;64.79
61136;BME280;47021;51.340;12.432;2023-01-04T12:08:24;100172.38;;;11.93;63.08
61136;BME280;47021;51.340;12.432;2023-01-04T12:13:35;100165.50;;;12.01;63.40
61136;BME280;47021;51.340;12.432;2023-01-04T12:21:13;100170.59;;;11.93;62.56
61136;BME280;47021;51.340;12.432;2023-01-04T12:26:23;100179.28;;;12.13;62.28
61136;BME280;47021;51.340;12.432;2023-01-04T12:28:49;100183.34;;;11.77;62.96
61136;BME280;47021;51.340;12.432;2023-01-04T12:31:28;100166.31;;;12.02;62.69
61136;BME280;47021;51.340;12.432;2023-01-04T12:33:57;100154.09;;;12.12;62.15
61136;BME280;47021;51.340;12.432;2023-01-04T12:46:55;100147.34;;;12.19;61.46
61136;BME280;47021;51.340;12.432;2023-01-04T12:51:48;100148.97;;;12.11;61.96
61136;BME280;47021;51.340;12.432;2023-01-04T12:57:21;100160.41;;;12.29;61.19
61136;BME280;47021;51.340;12.432;2023-01-04T12:59:56;100143.50;;;12.33;61.34
61136;BME280;47021;51.340;12.432;2023-01-04T13:02:26;100136.59;;;12.32;61.31
61136;BME280;47021;51.340;12.432;2023-01-04T13:04:57;100132.03;;;12.43;61.19
61136;BME280;47021;51.340;12.432;2023-01-04T13:07:28;100119.38;;;12.39;61.02
61136;BME280;47021;51.340;12.432;2023-01-04T13:15:14;100118.47;;;12.76;60.28
61136;BME280;47021;51.340;12.432;2023-01-04T13:17:44;100115.13;;;12.94;59.81
61136;BME280;47021;51.340;12.432;2023-01-04T13:20:13;100098.59;;;12.84;60.02
61136;BME280;47021;51.340;12.432;2023-01-04T13:22:40;100089.97;;;12.73;60.37
61136;BME280;47021;51.340;12.432;2023-01-04T13:25:10;100096.06;;;12.55;60.97
61136;BME280;47021;51.340;12.432;2023-01-04T13:27:38;100088.59;;;12.69;60.75
61136;BME280;47021;51.340;12.432;2023-01-04T13:30:35;100084.28;;;12.78;60.66
61136;BME280;47021;51.340;12.432;2023-01-04T13:33:08;100087.59;;;12.80;60.28
61136;BME280;47021;51.340;12.432;2023-01-04T13:35:34;100074.97;;;13.03;60.54
61136;BME280;47021;51.340;12.432;2023-01-04T13:38:13;100074.03;;;12.94;61.11
61136;BME280;47021;51.340;12.432;2023-01-04T13:40:43;100058.34;;;12.85;61.35
61136;BME280;47021;51.340;12.432;2023-01-04T13:48:21;100040.19;;;12.64;62.20
61136;BME280;47021;51.340;12.432;2023-01-04T13:50:59;100027.28;;;12.90;61.73
61136;BME280;47021;51.340;12.432;2023-01-04T13:53:27;100021.59;;;12.67;62.78
61136;BME280;47021;51.340;12.432;2023-01-04T13:55:54;100023.78;;;12.71;62.61
61136;BME280;47021;51.340;12.432;2023-01-04T13:58:27;100026.88;;;12.85;61.96
61136;BME280;47021;51.340;12.432;2023-01-04T14:08:43;100028.13;;;13.27;61.13
61136;BME280;47021;51.340;12.432;2023-01-04T14:11:14;100035.06;;;13.09;61.38
61136;BME280;47021;51.340;12.432;2023-01-04T14:13:44;100031.25;;;12.94;62.88
61136;BME280;47021;51.340;12.432;2023-01-04T14:16:22;100029.53;;;12.75;63.20
61136;BME280;47021;51.340;12.432;2023-01-04T14:18:49;100036.47;;;13.03;62.94
61136;BME280;47021;51.340;12.432;2023-01-04T14:21:15;100031.06;;;12.77;63.43
61136;BME280;47021;51.340;12.432;2023-01-04T14:23:44;100014.50;;;13.14;62.70
61136;BME280;47021;51.340;12.432;2023-01-04T14:26:31;100030.34;;;13.22;62.54
61136;BME280;47021;51.340;12.432;2023-01-04T14:28:58;100012.78;;;13.50;61.76
61136;BME280;47021;51.340;12.432;2023-01-04T14:31:25;100022.50;;;13.39;61.95
61136;BME280;47021;51.340;12.432;2023-01-04T14:33:51;100008.88;;;13.09;62.20
61136;BME280;47021;51.340;12.432;2023-01-04T14:36:29;100000.47;;;13.05;62.87
61136;BME280;47021;51.340;12.432;2023-01-04T14:39:07;100000.72;;;13.12;62.74
61136;BME280;47021;51.340;12.432;2023-01-04T14:44:31;99992.84;;;13.12;62.25
61136;BME280;47021;51.340;12.432;2023-01-04T14:46:58;99995.72;;;13.18;62.79
61136;BME280;47021;51.340;12.432;2023-01-04T14:49:24;99993.59;;;13.31;62.06
61136;BME280;47021;51.340;12.432;2023-01-04T14:52:09;99990.81;;;13.33;62.07
61136;BME280;47021;51.340;12.432;2023-01-04T14:54:35;99995.94;;;13.25;62.32
61136;BME280;47021;51.340;12.432;2023-01-04T14:57:02;99988.41;;;13.22;62.37
61136;BME280;47021;51.340;12.432;2023-01-04T14:59:33;99994.75;;;13.19;62.28
61136;BME280;47021;51.340;12.432;2023-01-04T15:01:58;99994.75;;;13.19;62.35
61136;BME280;47021;51.340;12.432;2023-01-04T15:04:24;99995.31;;;13.40;61.71
61136;BME280;47021;51.340;12.432;2023-01-04T15:06:57;99992.97;;;13.20;61.96
61136;BME280;47021;51.340;12.432;2023-01-04T15:09:23;99990.56;;;13.26;61.79
61136;BME280;47021;51.340;12.432;2023-01-04T15:11:49;99990.13;;;13.31;62.02
61136;BME280;47021;51.340;12.432;2023-01-04T15:14:16;99995.81;;;13.44;61.43
61136;BME280;47021;51.340;12.432;2023-01-04T15:16:41;99982.25;;;13.31;61.65
61136;BME280;47021;51.340;12.432;2023-01-04T15:19:08;99974.16;;;13.24;61.75
61136;BME280;47021;51.340;12.432;2023-01-04T15:21:41;99970.25;;;13.11;62.00
61136;BME280;47021;51.340;12.432;2023-01-04T15:24:12;99959.94;;;13.27;62.09
61136;BME280;47021;51.340;12.432;2023-01-04T15:26:43;99963.53;;;13.26;62.16
61136;BME280;47021;51.340;12.432;2023-01-04T15:29:21;99963.97;;;13.21;62.57
61136;BME280;47021;51.340;12.432;2023-01-04T15:31:48;99981.59;;;13.47;61.51
61136;BME280;47021;51.340;12.432;2023-01-04T15:34:13;99971.09;;;13.29;62.42
61136;BME280;47021;51.340;12.432;2023-01-04T15:36:39;99977.56;;;13.07;62.73
61136;BME280;47021;51.340;12.432;2023-01-04T15:39:05;99977.84;;;13.31;62.64
61136;BME280;47021;51.340;12.432;2023-01-04T15:41:30;99976.78;;;13.24;62.50
61136;BME280;47021;51.340;12.432;2023-01-04T15:43:55;99966.91;;;13.09;63.12
61136;BME280;47021;51.340;12.432;2023-01-04T15:46:22;99965.09;;;13.36;62.53
61136;BME280;47021;51.340;12.432;2023-01-04T15:51:33;99940.53;;;13.37;62.12
61136;BME280;47021;51.340;12.432;2023-01-04T15:53:59;99917.97;;;13.27;62.60
61136;BME280;47021;51.340;12.432;2023-01-04T15:56:32;99934.94;;;13.05;63.16
61136;BME280;47021;51.340;12.432;2023-01-04T15:58:57;99919.22;;;13.05;62.92
61136;BME280;47021;51.340;12.432;2023-01-04T16:01:24;99907.19;;;13.12;62.49
61136;BME280;47021;51.340;12.432;2023-01-04T16:03:49;99893.22;;;13.29;62.24
61136;BME280;47021;51.340;12.432;2023-01-04T16:06:20;99897.56;;;13.56;61.82
61136;BME280;47021;51.340;12.432;2023-01-04T16:08:47;99882.81;;;13.37;62.23
61136;BME280;47021;51.340;12.432;2023-01-04T16:11:15;99883.00;;;12.91;63.78
61136;BME280;47021;51.340;12.432;2023-01-04T16:13:58;99883.06;;;13.26;62.88
61136;BME280;47021;51.340;12.432;2023-01-04T16:16:26;99883.78;;;13.01;63.82
61136;BME280;47021;51.340;12.432;2023-01-04T16:18:52;99893.84;;;12.79;63.84
61136;BME280;47021;51.340;12.432;2023-01-04T16:21:20;99903.59;;;13.31;62.81